createdAt,value
2023-02-14T00:01:33.099Z,37.94
2023-02-14T00:04:01.662Z,37.96
2023-02-14T00:06:29.839Z,37.89
2023-02-14T00:08:57.882Z,37.92
2023-02-14T00:11:25.777Z,38.01
2023-02-14T00:14:11.184Z,38.03
2023-02-14T00:16:40.721Z,38.33
2023-02-14T00:19:10.187Z,37.83
2023-02-14T00:21:40.380Z,37.79
2023-02-14T00:24:11.379Z,38.19
2023-02-14T00:26:40.109Z,37.86
2023-02-14T00:29:10.815Z,38.11
2023-02-14T00:31:41.515Z,38.19
2023-02-14T00:34:10.577Z,38.27
2023-02-14T00:36:39.303Z,38.08
2023-02-14T00:39:09.180Z,38.25
2023-02-14T00:41:38.824Z,38.22
2023-02-14T00:44:07.387Z,38.20
2023-02-14T00:46:36.080Z,38.15
2023-02-14T00:49:05.829Z,38.15
2023-02-14T00:51:33.746Z,38.17
2023-02-14T00:54:03.406Z,38.05
2023-02-14T00:56:33.115Z,38.12
2023-02-14T00:59:01.154Z,38.20
2023-02-14T01:01:29.418Z,38.28
2023-02-14T01:03:58.918Z,38.13
2023-02-14T01:06:28.267Z,38.41
2023-02-14T01:08:58.390Z,37.96
2023-02-14T01:11:28.198Z,38.13
2023-02-14T01:13:58.886Z,38.22
2023-02-14T01:16:28.625Z,38.23
2023-02-14T01:18:57.037Z,38.08
2023-02-14T01:21:27.178Z,38.39
2023-02-14T01:24:00.886Z,38.14
2023-02-14T01:26:29.971Z,38.23
2023-02-14T01:28:58.216Z,38.03
2023-02-14T01:31:29.366Z,38.18
2023-02-14T01:33:58.933Z,37.82
2023-02-14T01:36:32.138Z,38.27
2023-02-14T01:39:04.620Z,37.89
2023-02-14T01:41:36.368Z,37.95
2023-02-14T01:44:09.416Z,38.08
2023-02-14T01:46:38.551Z,38.50
2023-02-14T01:49:13.049Z,38.37
2023-02-14T01:51:45.296Z,38.17
2023-02-14T01:54:16.101Z,38.17
2023-02-14T01:56:48.774Z,38.07
2023-02-14T01:59:20.655Z,38.12
2023-02-14T02:01:51.289Z,38.03
2023-02-14T02:04:23.807Z,38.29
2023-02-14T02:06:54.475Z,38.07
2023-02-14T02:09:32.096Z,38.51
2023-02-14T02:12:00.560Z,38.29
2023-02-14T02:14:28.502Z,38.20
2023-02-14T02:17:20.731Z,38.30
2023-02-14T02:20:26.140Z,38.50
2023-02-14T02:23:34.825Z,38.73
2023-02-14T02:26:45.017Z,38.71
2023-02-14T02:29:34.584Z,38.44
2023-02-14T02:32:26.813Z,38.94
2023-02-14T02:35:16.982Z,38.67
2023-02-14T02:37:55.401Z,38.57
2023-02-14T02:40:45.167Z,38.57
2023-02-14T02:43:29.839Z,38.65
2023-02-14T02:46:23.111Z,38.74
2023-02-14T02:49:00.724Z,38.78
2023-02-14T02:51:59.555Z,38.48
2023-02-14T02:54:34.587Z,38.90
2023-02-14T02:57:06.918Z,38.48
2023-02-14T02:59:39.481Z,39.07
2023-02-14T03:02:12.723Z,38.42
2023-02-14T03:04:56.148Z,38.86
2023-02-14T03:07:39.615Z,38.65
2023-02-14T03:10:14.135Z,38.80
2023-02-14T03:13:11.757Z,39.00
2023-02-14T03:15:54.187Z,39.13
2023-02-14T03:18:52.433Z,39.06
2023-02-14T03:21:28.787Z,38.96
2023-02-14T03:24:06.546Z,38.88
2023-02-14T03:26:40.418Z,38.78
2023-02-14T03:29:16.947Z,38.92
2023-02-14T03:31:55.777Z,38.87
2023-02-14T03:34:31.510Z,39.16
2023-02-14T03:37:04.710Z,39.06
2023-02-14T03:39:40.898Z,39.19
2023-02-14T03:42:15.535Z,39.42
2023-02-14T03:44:46.448Z,39.22
2023-02-14T03:47:27.429Z,39.77
2023-02-14T03:50:00.346Z,39.31
2023-02-14T03:52:31.611Z,39.41
2023-02-14T03:55:03.896Z,39.44
2023-02-14T03:57:37.011Z,39.41
2023-02-14T04:00:06.527Z,39.75
2023-02-14T04:02:44.142Z,39.12
2023-02-14T04:05:17.693Z,39.07
2023-02-14T04:07:47.325Z,39.06
2023-02-14T04:10:18.009Z,38.98
2023-02-14T04:12:46.113Z,39.13
2023-02-14T04:15:15.549Z,39.22
2023-02-14T04:18:00.885Z,39.28
2023-02-14T04:20:29.667Z,39.01
2023-02-14T04:22:57.592Z,39.17
2023-02-14T04:25:27.261Z,39.24
2023-02-14T04:27:55.044Z,38.96
2023-02-14T04:30:23.383Z,38.95
2023-02-14T04:32:51.249Z,39.22
2023-02-14T04:35:19.223Z,39.19
2023-02-14T04:37:47.057Z,39.00
2023-02-14T04:40:17.272Z,39.17
2023-02-14T04:42:46.898Z,39.14
2023-02-14T04:45:15.003Z,38.87
2023-02-14T04:47:42.763Z,39.32
2023-02-14T04:50:11.099Z,39.21
2023-02-14T04:52:39.222Z,39.26
2023-02-14T04:55:08.148Z,39.44
2023-02-14T04:57:35.933Z,39.36
2023-02-14T05:00:06.094Z,39.28
2023-02-14T05:02:33.925Z,39.03
2023-02-14T05:05:01.740Z,39.50
2023-02-14T05:07:29.550Z,39.57
2023-02-14T05:09:57.336Z,39.72
2023-02-14T05:12:25.193Z,39.88
2023-02-14T05:14:52.973Z,39.66
2023-02-14T05:17:22.081Z,39.61
2023-02-14T05:19:49.887Z,39.83
2023-02-14T05:22:18.604Z,40.00
2023-02-14T05:24:46.441Z,40.05
2023-02-14T05:27:14.189Z,40.11
2023-02-14T05:29:42.066Z,39.94
2023-02-14T05:32:10.120Z,40.04
2023-02-14T05:34:39.365Z,40.19
2023-02-14T05:37:07.202Z,40.28
2023-02-14T05:39:35.013Z,40.24
2023-02-14T05:42:03.202Z,40.30
2023-02-14T05:44:31.010Z,40.25
2023-02-14T05:46:58.827Z,40.30
2023-02-14T05:49:26.561Z,40.32
2023-02-14T05:51:55.673Z,40.27
2023-02-14T05:54:23.470Z,40.42
2023-02-14T05:56:51.218Z,40.47
2023-02-14T05:59:19.050Z,40.45
2023-02-14T06:01:46.873Z,40.44
2023-02-14T06:04:14.678Z,40.26
2023-02-14T06:06:42.417Z,40.56
2023-02-14T06:09:11.512Z,40.48
2023-02-14T06:11:39.249Z,40.60
2023-02-14T06:14:06.969Z,40.43
2023-02-14T06:16:34.799Z,40.47
2023-02-14T06:19:02.620Z,40.21
2023-02-14T06:21:30.435Z,40.16
2023-02-14T06:23:58.306Z,40.03
2023-02-14T06:26:28.042Z,40.21
2023-02-14T06:28:56.215Z,40.16
2023-02-14T06:31:24.517Z,40.20
2023-02-14T06:33:53.609Z,40.27
2023-02-14T06:36:21.773Z,40.21
2023-02-14T06:38:49.928Z,40.37
2023-02-14T06:41:18.439Z,40.40
2023-02-14T06:43:49.040Z,40.73
2023-02-14T06:46:17.380Z,40.44
2023-02-14T06:48:45.323Z,40.33
2023-02-14T06:51:13.576Z,40.70
2023-02-14T06:53:41.613Z,40.43
2023-02-14T06:56:09.450Z,40.73
2023-02-14T06:58:37.205Z,40.80
2023-02-14T07:01:06.721Z,40.91
2023-02-14T07:03:34.583Z,40.63
2023-02-14T07:06:02.427Z,40.76
2023-02-14T07:08:30.197Z,40.86
2023-02-14T07:10:58.742Z,40.66
2023-02-14T07:13:26.920Z,40.95
2023-02-14T07:15:54.741Z,41.18
2023-02-14T07:18:24.113Z,41.23
2023-02-14T07:20:52.367Z,41.24
2023-02-14T07:23:20.102Z,41.58
2023-02-14T07:25:47.889Z,42.02
2023-02-14T07:28:15.604Z,42.18
2023-02-14T07:30:43.474Z,42.38
2023-02-14T07:33:12.207Z,42.18
2023-02-14T07:35:41.412Z,42.22
2023-02-14T07:38:09.530Z,42.06
2023-02-14T07:40:37.314Z,41.86
2023-02-14T07:43:05.018Z,42.27
2023-02-14T07:45:33.014Z,41.74
2023-02-14T07:48:02.057Z,41.87
2023-02-14T07:50:30.449Z,42.01
2023-02-14T07:52:59.700Z,41.65
2023-02-14T07:55:27.596Z,41.76
2023-02-14T07:57:55.365Z,41.67
2023-02-14T08:00:24.017Z,41.86
2023-02-14T08:02:51.872Z,41.99
2023-02-14T08:05:19.901Z,41.79
2023-02-14T08:07:47.704Z,41.74
2023-02-14T08:10:17.100Z,41.81
2023-02-14T08:13:00.047Z,41.81
2023-02-14T08:15:46.812Z,41.90
2023-02-14T08:18:15.102Z,41.71
2023-02-14T08:20:43.622Z,41.86
2023-02-14T08:23:11.860Z,41.91
2023-02-14T08:25:41.285Z,42.01
2023-02-14T08:28:09.329Z,41.69
2023-02-14T08:30:38.796Z,41.85
2023-02-14T08:33:07.038Z,41.77
2023-02-14T08:35:35.359Z,41.82
2023-02-14T08:38:03.714Z,41.76
2023-02-14T08:40:31.848Z,41.68
2023-02-14T08:43:00.999Z,41.99
2023-02-14T08:45:28.794Z,41.91
2023-02-14T08:48:02.321Z,41.97
2023-02-14T08:50:30.230Z,42.01
2023-02-14T08:52:58.007Z,42.15
2023-02-14T08:55:26.043Z,42.03
2023-02-14T08:57:55.451Z,42.02
2023-02-14T09:00:24.812Z,42.23
2023-02-14T09:02:53.563Z,42.51
2023-02-14T09:05:23.294Z,42.60
2023-02-14T09:07:51.781Z,42.67
2023-02-14T09:10:20.027Z,42.59
2023-02-14T09:12:47.940Z,42.56
2023-02-14T09:15:15.745Z,42.42
2023-02-14T09:17:45.001Z,42.22
2023-02-14T09:20:14.692Z,42.48
2023-02-14T09:22:42.625Z,42.29
2023-02-14T09:25:10.655Z,42.41
2023-02-14T09:27:38.568Z,42.16
2023-02-14T09:30:07.379Z,42.13
2023-02-14T09:32:35.306Z,42.00
2023-02-14T09:35:04.524Z,41.59
2023-02-14T09:37:32.376Z,41.55
2023-02-14T09:40:00.183Z,41.55
2023-02-14T09:42:47.342Z,40.95
2023-02-14T09:45:18.285Z,41.68
2023-02-14T09:47:50.494Z,41.04
2023-02-14T09:50:25.466Z,40.77
2023-02-14T09:52:57.085Z,41.10
2023-02-14T09:55:30.001Z,40.70
2023-02-14T09:58:04.674Z,41.17
2023-02-14T10:00:38.069Z,40.54
2023-02-14T10:03:38.304Z,39.93
2023-02-14T10:06:20.392Z,39.79
2023-02-14T10:09:03.130Z,39.59
2023-02-14T10:11:31.444Z,40.66
2023-02-14T10:14:05.178Z,40.17
2023-02-14T10:16:37.837Z,40.10
2023-02-14T10:19:14.992Z,39.55
2023-02-14T10:21:51.738Z,39.29
2023-02-14T10:24:24.514Z,39.62
2023-02-14T10:27:16.779Z,38.80
2023-02-14T10:29:44.760Z,39.47
2023-02-14T10:32:16.014Z,39.34
2023-02-14T10:34:49.183Z,38.82
2023-02-14T10:37:31.326Z,38.78
2023-02-14T10:40:22.596Z,38.57
2023-02-14T10:42:58.603Z,38.92
2023-02-14T10:45:35.662Z,38.34
2023-02-14T10:48:16.645Z,38.32
2023-02-14T10:50:52.331Z,38.07
2023-02-14T10:53:27.919Z,38.25
2023-02-14T10:56:01.172Z,38.35
2023-02-14T10:58:33.605Z,37.96
2023-02-14T11:01:04.810Z,37.93
2023-02-14T11:03:35.914Z,38.23
2023-02-14T11:06:03.917Z,37.78
2023-02-14T11:08:36.191Z,37.48
2023-02-14T11:11:14.877Z,36.97
2023-02-14T11:13:43.363Z,37.40
2023-02-14T11:16:14.145Z,36.82
2023-02-14T11:18:42.671Z,37.03
2023-02-14T11:21:12.218Z,37.02
2023-02-14T11:23:43.996Z,36.57
2023-02-14T11:26:18.403Z,36.47
2023-02-14T11:28:55.295Z,36.51
2023-02-14T11:31:29.340Z,36.94
2023-02-14T11:33:57.890Z,37.59
2023-02-14T11:36:26.671Z,37.15
2023-02-14T11:39:06.504Z,36.67
2023-02-14T11:41:48.890Z,37.60
2023-02-14T11:44:22.606Z,38.04
2023-02-14T11:46:53.532Z,37.68
2023-02-14T11:49:29.624Z,37.13
2023-02-14T11:51:59.464Z,37.28
2023-02-14T11:54:36.184Z,36.85
2023-02-14T11:57:08.015Z,36.96
2023-02-14T11:59:39.957Z,36.58
2023-02-14T12:02:23.108Z,35.56
2023-02-14T12:04:56.079Z,36.24
2023-02-14T12:07:29.140Z,36.51
2023-02-14T12:10:17.418Z,35.02
2023-02-14T12:12:51.975Z,35.60
2023-02-14T12:15:27.176Z,35.14
2023-02-14T12:18:02.103Z,35.38
2023-02-14T12:20:39.324Z,34.94
2023-02-14T12:23:16.321Z,35.05
2023-02-14T12:25:52.335Z,35.40
2023-02-14T12:28:30.782Z,35.41
2023-02-14T12:30:59.370Z,35.80
2023-02-14T12:33:27.530Z,35.85
2023-02-14T12:36:04.772Z,34.45
2023-02-14T12:38:43.637Z,34.73
2023-02-14T12:41:31.898Z,34.01
2023-02-14T12:44:05.697Z,35.37
2023-02-14T12:46:46.648Z,34.05
2023-02-14T12:49:27.496Z,34.46
2023-02-14T12:52:11.170Z,34.11
2023-02-14T12:54:57.858Z,33.65
2023-02-14T12:57:41.964Z,33.75
2023-02-14T13:00:24.055Z,33.58
2023-02-14T13:03:27.784Z,33.39
2023-02-14T13:06:04.801Z,33.60
2023-02-14T13:08:51.864Z,33.79
2023-02-14T13:11:32.846Z,33.68
2023-02-14T13:14:11.566Z,33.66
2023-02-14T13:16:50.325Z,33.41
2023-02-14T13:19:35.641Z,33.73
2023-02-14T13:22:06.181Z,33.90
2023-02-14T13:24:40.603Z,33.63
2023-02-14T13:27:13.638Z,33.92
2023-02-14T13:29:48.584Z,33.14
2023-02-14T13:32:21.080Z,33.81
2023-02-14T13:34:50.908Z,33.78
2023-02-14T13:37:21.760Z,33.63
2023-02-14T13:39:53.221Z,33.10
2023-02-14T13:42:53.712Z,32.61
2023-02-14T13:45:54.675Z,32.47
2023-02-14T13:48:24.500Z,33.46
2023-02-14T13:50:56.129Z,33.02
2023-02-14T13:53:33.623Z,32.68
2023-02-14T13:56:02.987Z,32.89
2023-02-14T13:58:31.951Z,33.21
2023-02-14T14:01:39.254Z,32.56
2023-02-14T14:04:39.075Z,32.50
2023-02-14T14:07:30.387Z,32.22
2023-02-14T14:10:03.910Z,32.71
2023-02-14T14:12:39.996Z,32.42
2023-02-14T14:15:21.973Z,32.58
2023-02-14T14:18:29.308Z,32.19
2023-02-14T14:20:58.579Z,33.00
2023-02-14T14:23:38.515Z,33.00
2023-02-14T14:26:37.172Z,32.73
2023-02-14T14:29:13.312Z,32.61
2023-02-14T14:31:42.616Z,32.87
2023-02-14T14:34:18.856Z,32.32
2023-02-14T14:36:48.190Z,33.07
2023-02-14T14:39:28.298Z,32.99
2023-02-14T14:41:56.946Z,32.89
2023-02-14T14:44:26.595Z,32.86
2023-02-14T14:46:54.651Z,33.14
2023-02-14T14:49:22.549Z,33.03
2023-02-14T14:51:51.908Z,32.88
2023-02-14T14:54:22.707Z,33.07
2023-02-14T14:56:56.731Z,32.94
2023-02-14T14:59:30.969Z,32.33
2023-02-14T15:01:59.196Z,32.95
2023-02-14T15:04:29.870Z,33.09
2023-02-14T15:07:18.533Z,32.84
2023-02-14T15:09:46.577Z,32.91
2023-02-14T15:12:39.155Z,32.50
2023-02-14T15:15:10.136Z,33.53
2023-02-14T15:17:38.706Z,33.01
2023-02-14T15:20:11.484Z,32.58
2023-02-14T15:22:45.432Z,33.06
2023-02-14T15:25:20.109Z,32.93
2023-02-14T15:27:48.734Z,32.97
2023-02-14T15:30:26.625Z,32.34
2023-02-14T15:32:55.295Z,32.85
2023-02-14T15:35:28.005Z,32.97
2023-02-14T15:38:01.750Z,32.80
2023-02-14T15:40:32.246Z,33.25
2023-02-14T15:43:14.736Z,32.87
2023-02-14T15:45:44.192Z,33.25
2023-02-14T15:48:19.702Z,32.45
2023-02-14T15:50:51.003Z,32.71
2023-02-14T15:53:32.774Z,32.88
2023-02-14T15:56:06.775Z,32.94
2023-02-14T15:58:38.410Z,32.99
2023-02-14T16:01:07.384Z,33.33
2023-02-14T16:03:37.526Z,33.32
2023-02-14T16:06:06.306Z,33.02
2023-02-14T16:08:37.716Z,32.87
2023-02-14T16:11:08.915Z,32.80
2023-02-14T16:13:39.251Z,32.84
2023-02-14T16:16:08.604Z,33.11
2023-02-14T16:18:39.245Z,32.95
2023-02-14T16:21:16.416Z,33.19
2023-02-14T16:23:47.633Z,33.48
2023-02-14T16:26:15.804Z,33.33
2023-02-14T16:28:44.354Z,33.47
2023-02-14T16:31:17.229Z,32.96
2023-02-14T16:33:45.002Z,33.65
2023-02-14T16:36:20.709Z,33.18
2023-02-14T16:38:50.795Z,33.25
2023-02-14T16:41:20.802Z,33.15
2023-02-14T16:43:49.712Z,33.65
2023-02-14T16:46:19.925Z,33.22
2023-02-14T16:48:52.082Z,33.95
2023-02-14T16:51:21.801Z,33.37
2023-02-14T16:53:51.572Z,33.47
2023-02-14T16:56:23.881Z,33.30
2023-02-14T16:58:51.911Z,33.67
2023-02-14T17:01:19.743Z,33.88
2023-02-14T17:03:47.734Z,34.05
2023-02-14T17:06:19.947Z,33.95
2023-02-14T17:08:50.168Z,33.82
2023-02-14T17:11:20.752Z,33.73
2023-02-14T17:13:49.722Z,33.80
2023-02-14T17:16:18.351Z,33.80
2023-02-14T17:18:49.606Z,33.94
2023-02-14T17:21:20.540Z,34.13
2023-02-14T17:23:48.443Z,33.91
2023-02-14T17:26:17.944Z,34.10
2023-02-14T17:28:47.801Z,33.82
2023-02-14T17:31:16.742Z,34.05
2023-02-14T17:33:44.682Z,33.88
2023-02-14T17:36:14.594Z,34.03
2023-02-14T17:38:43.413Z,33.86
2023-02-14T17:41:13.458Z,34.32
2023-02-14T17:43:41.701Z,34.05
2023-02-14T17:46:11.429Z,34.43
2023-02-14T17:48:39.347Z,33.95
2023-02-14T17:51:08.255Z,34.18
2023-02-14T17:53:36.813Z,34.27
2023-02-14T17:56:06.840Z,34.08
2023-02-14T17:58:34.736Z,34.66
2023-02-14T18:01:04.332Z,34.28
2023-02-14T18:03:34.720Z,34.36
2023-02-14T18:06:04.144Z,34.11
2023-02-14T18:08:34.236Z,34.45
2023-02-14T18:11:05.864Z,34.38
2023-02-14T18:13:34.128Z,34.53
2023-02-14T18:16:03.298Z,34.57
2023-02-14T18:18:31.367Z,34.70
2023-02-14T18:21:03.061Z,34.16
2023-02-14T18:23:32.641Z,34.97
2023-02-14T18:26:04.204Z,34.71
2023-02-14T18:28:32.789Z,34.66
2023-02-14T18:31:04.482Z,34.52
2023-02-14T18:33:32.426Z,35.06
2023-02-14T18:36:04.292Z,34.48
2023-02-14T18:38:32.215Z,34.87
2023-02-14T18:41:03.291Z,34.60
2023-02-14T18:43:31.451Z,34.59
2023-02-14T18:46:03.915Z,34.95
2023-02-14T18:48:32.119Z,34.80
2023-02-14T18:51:07.307Z,34.94
2023-02-14T18:53:35.373Z,35.34
2023-02-14T18:56:05.343Z,34.82
2023-02-14T18:58:33.519Z,34.83
2023-02-14T19:01:09.277Z,34.98
2023-02-14T19:03:37.232Z,35.04
2023-02-14T19:06:07.486Z,34.79
2023-02-14T19:08:36.816Z,34.92
2023-02-14T19:11:05.130Z,34.75
2023-02-14T19:13:33.061Z,35.08
2023-02-14T19:16:01.174Z,35.29
2023-02-14T19:18:29.485Z,35.17
2023-02-14T19:20:57.279Z,35.25
2023-02-14T19:23:26.713Z,34.95
2023-02-14T19:25:54.768Z,35.37
2023-02-14T19:28:22.828Z,35.07
2023-02-14T19:30:50.669Z,35.23
2023-02-14T19:33:18.611Z,35.26
2023-02-14T19:35:46.448Z,35.32
2023-02-14T19:38:14.670Z,35.36
2023-02-14T19:40:46.353Z,35.44
2023-02-14T19:43:14.498Z,35.14
2023-02-14T19:45:42.470Z,35.34
2023-02-14T19:48:11.161Z,35.19
2023-02-14T19:50:41.862Z,35.27
2023-02-14T19:53:10.138Z,35.50
2023-02-14T19:55:39.909Z,35.48
2023-02-14T19:58:09.674Z,35.17
2023-02-14T20:00:38.136Z,35.67
2023-02-14T20:03:06.182Z,35.37
2023-02-14T20:05:35.242Z,35.32
2023-02-14T20:08:03.102Z,35.57
2023-02-14T20:10:32.885Z,35.59
2023-02-14T20:13:02.382Z,35.62
2023-02-14T20:18:37.129Z,35.39
2023-02-14T20:21:12.238Z,35.45
2023-02-14T20:23:44.199Z,35.47
2023-02-14T20:26:14.118Z,35.66
2023-02-14T20:28:43.300Z,35.47
2023-02-14T20:31:19.063Z,35.42
2023-02-14T20:33:50.459Z,35.47
2023-02-14T20:36:20.168Z,35.50
2023-02-14T20:38:51.280Z,35.69
2023-02-14T20:41:19.242Z,35.61
2023-02-14T20:43:48.744Z,35.58
2023-02-14T20:46:21.333Z,35.51
2023-02-14T20:48:54.123Z,35.88
2023-02-14T20:51:23.981Z,36.09
2023-02-14T20:53:54.092Z,35.71
2023-02-14T20:56:26.020Z,36.01
2023-02-14T20:58:54.220Z,35.96
2023-02-14T21:01:46.380Z,35.81
2023-02-14T21:04:17.902Z,35.80
2023-02-14T21:06:47.672Z,36.11
2023-02-14T21:09:16.532Z,36.21
2023-02-14T21:11:44.441Z,35.97
2023-02-14T21:14:12.840Z,36.39
2023-02-14T21:16:42.056Z,36.33
2023-02-14T21:19:09.987Z,36.21
2023-02-14T21:21:39.160Z,36.20
2023-02-14T21:24:09.668Z,36.12
2023-02-14T21:26:38.054Z,36.12
2023-02-14T21:29:06.483Z,36.33
2023-02-14T21:31:34.564Z,36.09
2023-02-14T21:34:04.788Z,36.16
2023-02-14T21:36:35.524Z,36.35
2023-02-14T21:39:04.369Z,36.34
2023-02-14T21:41:32.983Z,36.40
2023-02-14T21:44:02.754Z,36.24
2023-02-14T21:46:32.013Z,36.26
2023-02-14T21:49:19.454Z,36.22
2023-02-14T21:51:52.023Z,36.49
2023-02-14T21:54:20.330Z,36.60
2023-02-14T21:56:49.290Z,36.30
2023-02-14T21:59:17.255Z,36.22
2023-02-14T22:01:45.930Z,36.22
2023-02-14T22:04:14.103Z,36.48
2023-02-14T22:06:43.068Z,36.69
2023-02-14T22:09:17.410Z,36.81
2023-02-14T22:11:47.603Z,36.77
2023-02-14T22:14:15.730Z,36.46
2023-02-14T22:16:43.584Z,36.78
2023-02-14T22:19:14.747Z,36.64
2023-02-14T22:21:43.414Z,36.75
2023-02-14T22:24:12.820Z,36.98
2023-02-14T22:26:41.853Z,36.84
2023-02-14T22:29:13.121Z,36.83
2023-02-14T22:31:43.594Z,36.85
2023-02-14T22:34:13.753Z,37.03
2023-02-14T22:36:41.949Z,36.82
2023-02-14T22:39:09.901Z,36.85
2023-02-14T22:41:39.618Z,36.69
2023-02-14T22:44:07.830Z,36.77
2023-02-14T22:46:38.764Z,36.89
2023-02-14T22:49:09.144Z,36.75
2023-02-14T22:51:38.658Z,36.88
2023-02-14T22:54:09.058Z,36.76
2023-02-14T22:56:40.955Z,37.31
2023-02-14T22:59:14.508Z,37.16
2023-02-14T23:01:42.508Z,36.97
2023-02-14T23:04:10.975Z,36.96
2023-02-14T23:06:38.946Z,37.04
2023-02-14T23:09:09.083Z,37.22
2023-02-14T23:11:40.037Z,37.15
2023-02-14T23:14:25.940Z,37.11
2023-02-14T23:17:20.135Z,37.27
2023-02-14T23:20:06.306Z,37.22
2023-02-14T23:22:36.565Z,37.42
2023-02-14T23:25:07.093Z,37.38
2023-02-14T23:27:38.426Z,37.49
2023-02-14T23:30:08.434Z,37.47
2023-02-14T23:32:37.219Z,37.39
2023-02-14T23:35:05.269Z,37.37
2023-02-14T23:37:33.711Z,37.40
2023-02-14T23:40:01.573Z,37.17
2023-02-14T23:42:29.471Z,37.46
2023-02-14T23:45:18.708Z,37.56
2023-02-14T23:47:46.708Z,37.33
2023-02-14T23:50:15.516Z,37.17
2023-02-14T23:52:44.480Z,37.23
2023-02-14T23:55:12.353Z,37.36
2023-02-14T23:57:40.753Z,37.19
